Time;durP1;ratioP1;P1;durP2;ratioP2;P2;SDS_P1;SDS_P2;PMS_P1;PMS_P2;Temp;Humidity;BMP_temperature;BMP_pressure;BME280_temperature;BME280_humidity;BME280_pressure;Samples;Min_cycle;Max_cycle;Signal;HPM_P1;HPM_P2
2023/06/09 00:00:00;;;;;;;5.28;3.67;;;;;;;17.26;81.88;63789.81;5076004;28;20204;-79
2023/06/09 00:02:27;;;;;;;4.72;4.25;;;;;;;17.15;81.61;63770.66;5067457;28;20251;-78
2023/06/09 00:04:54;;;;;;;6.15;3.30;;;;;;;17.13;80.79;63771.13;5070991;28;20192;-79
2023/06/09 00:07:22;;;;;;;3.17;2.97;;;;;;;16.90;82.34;63747.72;5066428;28;20212;-79
2023/06/09 00:09:49;;;;;;;4.20;3.78;;;;;;;16.98;82.12;63752.94;5072569;28;20228;-79
2023/06/09 00:12:17;;;;;;;6.03;3.35;;;;;;;16.89;81.69;63746.69;5086446;28;20216;-79
2023/06/09 00:14:44;;;;;;;3.35;3.00;;;;;;;16.88;81.74;63743.06;5086685;28;20267;-79
2023/06/09 00:17:13;;;;;;;4.35;3.75;;;;;;;16.83;81.16;63737.84;5084752;28;20223;-79
2023/06/09 00:19:41;;;;;;;3.70;3.28;;;;;;;16.78;82.04;63737.28;5080881;28;20192;-78
2023/06/09 00:22:13;;;;;;;3.67;3.22;;;;;;;16.62;83.20;63718.56;5085799;28;20220;-79
2023/06/09 00:24:40;;;;;;;3.10;2.90;;;;;;;16.54;84.98;63710.25;5076392;28;20232;-80
2023/06/09 00:27:08;;;;;;;3.60;3.40;;;;;;;16.64;83.42;63725.78;5065815;28;20219;-79
2023/06/09 00:29:37;;;;;;;3.70;3.40;;;;;;;16.67;83.35;63726.34;5066952;28;20212;-79
2023/06/09 00:32:04;;;;;;;6.00;3.80;;;;;;;16.71;83.71;63724.84;5065911;28;20583;-79
2023/06/09 00:34:31;;;;;;;5.38;3.80;;;;;;;16.66;84.58;63720.16;5068941;28;20219;-78
2023/06/09 00:36:58;;;;;;;4.07;3.72;;;;;;;16.66;88.44;63722.75;5071115;28;20286;-79
2023/06/09 00:39:25;;;;;;;4.03;3.78;;;;;;;16.66;91.36;63722.75;5075309;28;20231;-79
2023/06/09 00:41:52;;;;;;;6.20;3.47;;;;;;;16.50;93.94;63705.56;5085244;28;20232;-79
2023/06/09 00:44:19;;;;;;;4.38;3.95;;;;;;;16.53;95.58;63708.69;5083924;28;20252;-79
2023/06/09 00:46:47;;;;;;;7.47;3.85;;;;;;;16.57;97.24;63712.84;5064649;28;20220;-79
2023/06/09 00:49:14;;;;;;;4.15;3.80;;;;;;;16.56;95.38;63712.34;5068829;28;20258;-78
2023/06/09 00:51:41;;;;;;;7.00;3.97;;;;;;;16.57;93.02;63713.38;5077093;28;20243;-78
2023/06/09 00:54:10;;;;;;;4.70;4.38;;;;;;;16.50;94.97;63703.50;5083535;28;20196;-79
2023/06/09 00:56:38;;;;;;;6.07;4.13;;;;;;;16.56;100.00;63714.38;5066367;28;20232;-79
2023/06/09 00:59:09;;;;;;;4.35;3.97;;;;;;;16.43;100.00;63701.34;5065538;28;20207;-78
2023/06/09 01:01:37;;;;;;;4.93;4.50;;;;;;;16.38;96.83;63691.00;5080961;28;20230;-79
2023/06/09 01:04:06;;;;;;;4.63;3.45;;;;;;;16.37;92.26;63687.41;5084923;28;20215;-79
2023/06/09 01:06:40;;;;;;;4.45;4.15;;;;;;;16.30;92.78;63682.69;5065018;28;20216;-78
2023/06/09 01:09:18;;;;;;;4.38;3.30;;;;;;;16.17;91.46;63669.69;5066077;28;20404;-79
2023/06/09 01:12:01;;;;;;;4.13;3.60;;;;;;;16.12;92.10;63669.09;5065615;28;20221;-78
2023/06/09 01:14:33;;;;;;;5.65;4.53;;;;;;;15.90;96.86;63641.09;5083678;28;20239;-79
2023/06/09 01:17:07;;;;;;;4.63;4.32;;;;;;;15.87;100.00;63635.41;5073688;28;20221;-79
2023/06/09 01:19:40;;;;;;;5.35;4.35;;;;;;;15.89;100.00;63640.06;5068853;28;20200;-79
2023/06/09 01:22:14;;;;;;;4.38;4.07;;;;;;;15.69;100.00;63619.25;5074331;28;20557;-79
2023/06/09 01:24:48;;;;;;;4.80;4.30;;;;;;;15.78;100.00;63633.75;5085271;28;20496;-79
2023/06/09 01:27:21;;;;;;;5.13;4.70;;;;;;;15.72;100.00;63622.88;5064904;28;20235;-80
2023/06/09 01:29:51;;;;;;;7.30;4.80;;;;;;;15.58;100.00;63610.91;5064773;28;20189;-78
2023/06/09 01:32:20;;;;;;;6.65;5.07;;;;;;;15.58;100.00;63608.34;5063571;28;20259;-79
2023/06/09 01:34:48;;;;;;;5.28;4.75;;;;;;;15.67;100.00;63617.19;5065577;28;20224;-79
2023/06/09 01:37:16;;;;;;;6.38;4.97;;;;;;;15.51;100.00;63603.13;5066352;28;20213;-79
2023/06/09 01:39:45;;;;;;;9.75;5.25;;;;;;;15.51;100.00;63603.13;5066682;28;20212;-79
2023/06/09 01:42:12;;;;;;;5.47;4.97;;;;;;;15.37;100.00;63591.09;5080162;28;20296;-78
2023/06/09 01:44:41;;;;;;;6.03;5.18;;;;;;;15.35;100.00;63589.03;5084232;28;20193;-79
2023/06/09 01:47:08;;;;;;;6.75;4.40;;;;;;;15.34;100.00;63588.00;5068404;28;20213;-79
2023/06/09 01:49:46;;;;;;;6.25;4.35;;;;;;;15.35;100.00;63581.84;5068946;28;20201;-78
2023/06/09 01:52:20;;;;;;;4.97;4.60;;;;;;;15.25;100.00;63576.06;5066282;28;20260;-79
2023/06/09 01:54:55;;;;;;;5.05;4.68;;;;;;;14.91;100.00;63544.34;5083879;28;20197;-80
2023/06/09 01:57:30;;;;;;;4.97;4.57;;;;;;;14.97;100.00;63548.00;5085948;28;20223;-79
2023/06/09 02:00:01;;;;;;;6.47;4.82;;;;;;;14.95;100.00;63545.94;5065881;28;20208;-78
2023/06/09 02:02:33;;;;;;;5.95;5.40;;;;;;;14.74;100.00;63516.41;5064740;28;20237;-78
2023/06/09 02:05:02;;;;;;;5.32;4.93;;;;;;;14.89;100.00;63539.19;5067761;28;20247;-78
2023/06/09 02:07:30;;;;;;;5.80;4.78;;;;;;;14.92;100.00;63544.88;5076132;28;20263;-79
2023/06/09 02:09:57;;;;;;;5.07;4.57;;;;;;;14.92;100.00;63542.81;5083356;28;20197;-79
2023/06/09 02:12:31;;;;;;;5.40;4.18;;;;;;;14.91;100.00;63538.69;5088751;28;20484;-79
2023/06/09 02:14:59;;;;;;;5.55;4.88;;;;;;;15.00;100.00;63550.59;5076537;28;20255;-79
2023/06/09 02:17:26;;;;;;;5.25;4.85;;;;;;;15.00;100.00;63548.03;5081527;28;20213;-78
2023/06/09 02:19:53;;;;;;;5.53;5.07;;;;;;;15.05;100.00;63555.78;5072404;28;20212;-80
2023/06/09 02:22:20;;;;;;;5.20;4.90;;;;;;;15.11;100.00;63558.94;5067403;28;20232;-79
2023/06/09 02:24:46;;;;;;;5.07;4.60;;;;;;;15.11;100.00;63564.59;5068964;28;20202;-79
2023/06/09 02:27:13;;;;;;;5.10;4.60;;;;;;;14.97;100.00;63542.34;5079977;28;20225;-80
2023/06/09 02:29:40;;;;;;;3.97;3.67;;;;;;;14.95;100.00;63540.28;5081355;28;20251;-78
2023/06/09 02:32:09;;;;;;;4.80;3.97;;;;;;;14.93;100.00;63546.41;5087222;28;20319;-78
2023/06/09 02:34:37;;;;;;;4.68;4.00;;;;;;;14.93;100.00;63545.88;5088273;28;20196;-77
2023/06/09 02:37:07;;;;;;;5.97;4.82;;;;;;;14.61;100.00;63505.50;5087379;28;20557;-79
2023/06/09 02:39:34;;;;;;;6.88;4.55;;;;;;;14.54;100.00;63498.22;5069291;28;20540;-79
2023/06/09 02:42:00;;;;;;;6.60;4.30;;;;;;;14.56;100.00;63502.34;5082337;28;20238;-78
2023/06/09 02:44:28;;;;;;;4.57;4.13;;;;;;;14.55;100.00;63506.41;5070310;28;20247;-78
2023/06/09 02:46:55;;;;;;;5.55;4.95;;;;;;;14.55;100.00;63499.25;5068389;28;20279;-81
2023/06/09 02:49:23;;;;;;;5.28;4.57;;;;;;;14.59;100.00;63503.41;5080026;28;20200;-78
2023/06/09 02:51:51;;;;;;;5.03;4.45;;;;;;;14.61;100.00;63512.66;5089904;28;20216;-78
2023/06/09 02:54:18;;;;;;;5.00;4.60;;;;;;;14.56;100.00;63502.88;5086393;28;20234;-78
2023/06/09 02:56:44;;;;;;;4.00;3.70;;;;;;;14.66;100.00;63518.38;5084755;28;20391;-78
2023/06/09 02:59:11;;;;;;;6.07;4.72;;;;;;;14.66;100.00;63513.25;5066945;28;20223;-79
2023/06/09 03:01:39;;;;;;;5.32;4.65;;;;;;;14.64;100.00;63513.19;5067461;28;20423;-79
2023/06/09 03:04:07;;;;;;;5.88;5.43;;;;;;;14.64;100.00;63513.19;5069255;28;20234;-79
2023/06/09 03:06:37;;;;;;;8.88;6.30;;;;;;;14.47;100.00;63490.41;5086186;28;20224;-78
2023/06/09 03:09:04;;;;;;;8.05;5.97;;;;;;;14.54;100.00;63503.34;5085241;28;20207;-81
2023/06/09 03:11:32;;;;;;;5.75;5.25;;;;;;;14.62;100.00;63516.78;5082652;28;20269;-78
2023/06/09 03:13:58;;;;;;;7.57;5.88;;;;;;;14.72;100.00;63519.47;5067658;28;20490;-79
2023/06/09 03:16:27;;;;;;;6.00;5.40;;;;;;;14.74;100.00;63526.16;5079462;28;20225;-79
2023/06/09 03:18:54;;;;;;;5.53;5.13;;;;;;;14.82;100.00;63527.28;5087273;28;20255;-78
2023/06/09 03:21:24;;;;;;;5.47;5.00;;;;;;;14.88;100.00;63533.00;5088142;28;20250;-78
2023/06/09 03:23:53;;;;;;;7.82;5.90;;;;;;;14.89;100.00;63542.25;5084353;28;20260;-78
2023/06/09 03:26:19;;;;;;;5.60;5.05;;;;;;;14.96;100.00;63541.34;5067038;28;20225;-80
2023/06/09 03:28:47;;;;;;;6.57;5.72;;;;;;;15.08;100.00;63562.00;5066237;28;20679;-78
2023/06/09 03:31:14;;;;;;;5.88;5.20;;;;;;;15.16;100.00;63564.16;5065829;28;20201;-78
2023/06/09 03:33:41;;;;;;;5.32;4.93;;;;;;;15.19;100.00;63572.91;5065297;28;20249;-78
2023/06/09 03:36:08;;;;;;;6.15;5.55;;;;;;;15.32;100.00;63583.34;5069063;28;20197;-80
2023/06/09 03:38:37;;;;;;;7.10;5.30;;;;;;;15.33;100.00;63579.78;5068848;28;20189;-78
2023/06/09 03:41:06;;;;;;;12.40;5.70;;;;;;;15.47;100.00;63593.81;5081025;28;20256;-78
2023/06/09 03:43:33;;;;;;;9.38;6.20;;;;;;;15.57;100.00;63606.78;5084135;28;20231;-79
2023/06/09 03:46:00;;;;;;;6.40;5.90;;;;;;;15.65;100.00;63615.59;5086966;28;20196;-77
2023/06/09 03:48:26;;;;;;;6.30;5.43;;;;;;;15.76;100.00;63629.09;5085548;28;20229;-79
2023/06/09 03:50:53;;;;;;;7.85;5.68;;;;;;;15.87;100.00;63643.13;5087706;28;20196;-79
2023/06/09 03:53:20;;;;;;;8.75;4.85;;;;;;;15.95;100.00;63646.81;5074446;28;20238;-79
2023/06/09 03:55:47;;;;;;;5.07;4.47;;;;;;;15.91;100.00;63639.56;5086525;28;20202;-79
2023/06/09 03:58:16;;;;;;;6.55;4.55;;;;;;;15.92;100.00;63648.84;5073256;28;20236;-79
2023/06/09 04:00:43;;;;;;;5.75;4.68;;;;;;;15.91;100.00;63647.78;5068927;28;20428;-79
2023/06/09 04:03:10;;;;;;;4.93;4.63;;;;;;;16.07;100.00;63659.28;5069902;28;20220;-79
2023/06/09 04:05:37;;;;;;;6.38;4.60;;;;;;;16.15;100.00;63667.09;5066450;28;20553;-79
2023/06/09 04:08:05;;;;;;;4.95;4.50;;;;;;;16.29;100.00;63689.34;5073305;28;20228;-79
2023/06/09 04:10:31;;;;;;;9.15;5.03;;;;;;;16.37;100.00;63684.84;5073702;28;20196;-80
2023/06/09 04:12:59;;;;;;;5.60;4.97;;;;;;;16.43;100.00;63698.78;5086775;28;20265;-79
2023/06/09 04:15:27;;;;;;;6.53;4.70;;;;;;;16.56;100.00;63712.34;5075574;28;20208;-79
2023/06/09 04:17:54;;;;;;;6.00;5.50;;;;;;;16.38;100.00;63685.88;5066832;28;20216;-79
2023/06/09 04:20:22;;;;;;;6.20;5.60;;;;;;;16.59;100.00;63714.94;5066543;28;20212;-79
2023/06/09 04:22:50;;;;;;;6.10;5.55;;;;;;;16.69;100.00;63725.31;5088700;28;20235;-79
2023/06/09 04:25:17;;;;;;;6.28;4.95;;;;;;;16.62;100.00;63718.56;5086954;28;20234;-79
2023/06/09 04:27:45;;;;;;;5.95;5.43;;;;;;;16.51;100.00;63709.19;5073434;28;20591;-79
2023/06/09 04:30:13;;;;;;;6.63;6.03;;;;;;;16.39;100.00;63689.50;5079797;28;20200;-79
2023/06/09 04:32:41;;;;;;;6.00;5.28;;;;;;;16.33;100.00;63685.28;5069180;28;20216;-79
2023/06/09 04:35:09;;;;;;;6.85;5.88;;;;;;;16.34;100.00;63689.44;5085981;28;20255;-80
2023/06/09 04:37:38;;;;;;;6.30;5.68;;;;;;;16.59;100.00;63710.31;5079289;28;20228;-78
2023/06/09 04:40:08;;;;;;;6.20;5.65;;;;;;;16.62;100.00;63713.44;5086837;28;20383;-78
2023/06/09 04:42:37;;;;;;;9.85;5.82;;;;;;;16.65;100.00;63719.13;5083280;28;20579;-78
2023/06/09 04:45:05;;;;;;;8.73;5.40;;;;;;;16.73;100.00;63732.59;5085815;28;20367;-79
2023/06/09 04:47:32;;;;;;;11.13;5.68;;;;;;;16.74;100.00;63730.56;5068997;28;20224;-78
2023/06/09 04:50:00;;;;;;;7.35;4.82;;;;;;;16.75;100.00;63729.00;5085720;28;20204;-79
2023/06/09 04:52:27;;;;;;;5.55;5.05;;;;;;;16.87;100.00;63742.03;5065659;28;20220;-78
2023/06/09 04:54:54;;;;;;;7.50;4.90;;;;;;;16.94;100.00;63748.78;5087177;28;20246;-80
2023/06/09 04:57:21;;;;;;;5.57;5.13;;;;;;;16.97;100.00;63757.03;5070538;28;20216;-80
2023/06/09 04:59:48;;;;;;;12.00;5.90;;;;;;;17.12;100.00;63773.19;5067711;28;20249;-82
2023/06/09 05:02:17;;;;;;;7.20;5.03;;;;;;;17.18;100.00;63773.75;5074102;28;20228;-78
2023/06/09 05:04:44;;;;;;;5.60;5.20;;;;;;;17.06;100.00;63763.84;5073605;28;20236;-78
2023/06/09 05:07:12;;;;;;;7.35;5.03;;;;;;;17.19;100.00;63775.31;5074499;28;20218;-78
2023/06/09 05:09:39;;;;;;;5.60;4.78;;;;;;;17.21;100.00;63777.41;5079628;28;20414;-78
2023/06/09 05:12:07;;;;;;;5.95;4.82;;;;;;;17.27;100.00;63783.13;5085197;28;20223;-78
2023/06/09 05:14:33;;;;;;;11.73;5.88;;;;;;;17.17;100.00;63770.66;5072752;28;20189;-77
2023/06/09 05:17:02;;;;;;;6.53;5.47;;;;;;;17.02;100.00;63762.25;5063953;28;20429;-77
2023/06/09 05:19:28;;;;;;;6.20;5.57;;;;;;;17.07;100.00;63765.41;5068542;28;20365;-78
2023/06/09 05:21:56;;;;;;;8.80;5.47;;;;;;;17.26;100.00;63787.22;5084481;28;20228;-77
2023/06/09 05:24:24;;;;;;;6.10;5.47;;;;;;;17.30;100.00;63786.25;5065253;28;20387;-78
2023/06/09 05:26:51;;;;;;;6.80;5.60;;;;;;;17.22;100.00;63780.50;5064755;28;20247;-77
2023/06/09 05:29:19;;;;;;;5.97;4.90;;;;;;;17.22;100.00;63777.94;5064879;28;20509;-76
2023/06/09 05:31:47;;;;;;;8.65;6.43;;;;;;;17.42;100.00;63795.66;5065205;28;20251;-81
2023/06/09 05:34:14;;;;;;;11.55;6.22;;;;;;;17.47;100.00;63801.41;5066704;28;20219;-77
2023/06/09 05:36:41;;;;;;;6.47;5.88;;;;;;;17.58;100.00;63812.84;5065910;28;20223;-78
2023/06/09 05:39:08;;;;;;;6.53;5.50;;;;;;;17.67;100.00;63827.38;5066497;28;20212;-77
2023/06/09 05:41:37;;;;;;;11.07;5.47;;;;;;;17.77;96.67;63837.78;5067621;28;20220;-77
2023/06/09 05:44:04;;;;;;;7.82;5.57;;;;;;;17.88;97.30;63846.13;5068513;28;20308;-77
2023/06/09 05:46:31;;;;;;;9.13;5.75;;;;;;;18.02;96.92;63863.31;5070992;28;20255;-77
2023/06/09 05:48:58;;;;;;;5.80;5.30;;;;;;;18.08;94.82;63870.09;5070251;28;20201;-77
2023/06/09 05:51:25;;;;;;;8.02;5.68;;;;;;;18.21;94.33;63883.63;5068497;28;20228;-77
2023/06/09 05:53:53;;;;;;;6.10;5.53;;;;;;;18.26;93.21;63885.72;5078885;28;20196;-77
2023/06/09 05:56:22;;;;;;;6.75;5.35;;;;;;;18.38;93.97;63898.22;5087180;28;20243;-80
2023/06/09 05:58:50;;;;;;;11.00;5.68;;;;;;;18.42;94.99;63902.94;5090050;28;20204;-77
2023/06/09 06:01:17;;;;;;;5.47;4.97;;;;;;;18.34;93.89;63896.66;5089513;28;20214;-78
2023/06/09 06:03:45;;;;;;;5.70;4.78;;;;;;;18.35;91.68;63895.63;5091024;28;20243;-78
2023/06/09 06:06:12;;;;;;;7.15;4.80;;;;;;;18.70;90.07;63931.09;5088730;28;20192;-78
2023/06/09 06:08:39;;;;;;;6.80;4.70;;;;;;;18.69;89.78;63930.03;5087960;28;20210;-79
2023/06/09 06:11:07;;;;;;;11.88;5.07;;;;;;;18.95;89.99;63960.25;5070233;28;20204;-78
2023/06/09 06:13:34;;;;;;;10.07;5.75;;;;;;;19.06;90.04;63974.28;5070587;28;20498;-80
2023/06/09 06:16:03;;;;;;;5.28;4.78;;;;;;;19.35;89.87;64001.44;5072076;28;20235;-78
2023/06/09 06:18:30;;;;;;;6.70;6.13;;;;;;;19.43;88.68;64009.81;5070067;28;20193;-78
2023/06/09 06:20:57;;;;;;;7.65;5.15;;;;;;;19.45;86.94;64012.41;5084933;28;20342;-79
2023/06/09 06:23:24;;;;;;;5.85;5.25;;;;;;;19.55;84.83;64024.91;5087498;28;20262;-78
2023/06/09 06:25:52;;;;;;;6.43;5.32;;;;;;;19.55;87.59;64022.81;5088320;28;20275;-81
2023/06/09 06:28:20;;;;;;;9.68;5.82;;;;;;;19.58;87.86;64025.44;5090983;28;20220;-78
2023/06/09 06:30:49;;;;;;;9.05;5.95;;;;;;;19.60;88.20;64027.53;5078688;28;20219;-78
2023/06/09 06:33:17;;;;;;;6.43;5.80;;;;;;;19.79;86.74;64046.81;5068226;28;20227;-77
2023/06/09 06:35:44;;;;;;;6.68;5.13;;;;;;;19.99;84.43;64059.91;5067976;28;20216;-79
2023/06/09 06:38:11;;;;;;;6.15;4.93;;;;;;;19.83;82.19;64051.00;5067027;28;20285;-78
2023/06/09 06:40:38;;;;;;;13.48;6.05;;;;;;;19.90;82.31;64053.13;5067104;28;20246;-78
2023/06/09 06:43:05;;;;;;;8.57;5.45;;;;;;;19.86;80.69;64051.53;5067534;28;20216;-77
2023/06/09 06:45:32;;;;;;;9.20;5.13;;;;;;;19.90;79.01;64058.81;5068061;28;20233;-79
2023/06/09 06:48:00;;;;;;;5.18;4.72;;;;;;;20.06;80.86;64069.81;5079973;28;20231;-77
2023/06/09 06:50:29;;;;;;;9.90;5.18;;;;;;;20.27;83.52;64096.91;5085320;28;20238;-78
2023/06/09 06:52:57;;;;;;;6.45;5.15;;;;;;;20.45;75.33;64118.81;5068390;28;20224;-79
2023/06/09 06:55:24;;;;;;;5.00;4.57;;;;;;;20.57;75.54;64128.25;5066560;28;20260;-78
2023/06/09 06:57:52;;;;;;;7.45;4.40;;;;;;;20.57;72.60;64131.34;5074386;28;20273;-77
2023/06/09 07:00:19;;;;;;;8.30;4.78;;;;;;;20.68;74.45;64137.66;5086781;28;20255;-79
2023/06/09 07:02:47;;;;;;;4.65;4.07;;;;;;;20.98;72.23;64173.66;5074503;28;20227;-79
2023/06/09 07:05:14;;;;;;;6.43;3.92;;;;;;;21.07;69.88;64180.44;5067895;28;20247;-79
2023/06/09 07:07:43;;;;;;;5.15;3.90;;;;;;;20.97;70.05;64167.41;5070261;28;20539;-78
2023/06/09 07:10:11;;;;;;;4.32;3.85;;;;;;;21.12;72.90;64183.06;5087734;28;20214;-80
2023/06/09 07:12:39;;;;;;;4.70;4.20;;;;;;;21.02;70.67;64177.81;5087766;28;20425;-79
2023/06/09 07:15:07;;;;;;;5.57;4.05;;;;;;;21.13;69.60;64186.72;5082295;28;20295;-77
2023/06/09 07:17:35;;;;;;;4.60;4.22;;;;;;;21.06;71.53;64182.00;5067320;28;20229;-76
2023/06/09 07:20:02;;;;;;;6.65;4.28;;;;;;;21.08;73.19;64178.38;5068290;28;20242;-76
2023/06/09 07:22:29;;;;;;;4.00;3.65;;;;;;;20.99;69.17;64172.09;5064615;28;20521;-77
2023/06/09 07:24:57;;;;;;;6.32;4.50;;;;;;;20.73;71.01;64142.34;5065776;28;20229;-78
2023/06/09 07:27:24;;;;;;;6.72;4.93;;;;;;;21.03;73.31;64170.56;5066099;28;20224;-77
2023/06/09 07:29:51;;;;;;;5.72;3.80;;;;;;;21.35;72.80;64211.75;5067418;28;20246;-77
2023/06/09 07:32:17;;;;;;;6.72;4.35;;;;;;;21.23;67.72;64197.16;5084602;28;20220;-76
2023/06/09 07:34:45;;;;;;;4.80;4.00;;;;;;;21.11;69.33;64184.09;5085251;28;20481;-75
2023/06/09 07:37:12;;;;;;;5.57;3.80;;;;;;;21.13;70.38;64186.19;5068994;28;20231;-77
2023/06/09 07:39:39;;;;;;;5.18;4.38;;;;;;;21.34;66.67;64211.25;5068897;28;20513;-76
2023/06/09 07:42:08;;;;;;;3.78;3.47;;;;;;;21.64;65.30;64236.88;5068632;28;20278;-77
2023/06/09 07:44:35;;;;;;;6.78;4.20;;;;;;;21.90;64.97;64266.66;5072461;28;20295;-75
2023/06/09 07:47:04;;;;;;;4.40;3.90;;;;;;;21.91;61.81;64265.09;5074800;28;20212;-76
2023/06/09 07:49:31;;;;;;;3.78;3.42;;;;;;;21.96;62.70;64269.81;5074654;28;20250;-76
2023/06/09 07:51:57;;;;;;;4.50;3.72;;;;;;;22.17;63.48;64289.16;5077145;28;20234;-77
2023/06/09 07:54:24;;;;;;;4.75;3.60;;;;;;;22.18;62.00;64295.91;5063409;28;20208;-76
2023/06/09 07:56:51;;;;;;;5.82;3.97;;;;;;;22.24;65.12;64301.66;5076018;28;20239;-76
2023/06/09 07:59:20;;;;;;;5.78;3.83;;;;;;;22.34;64.39;64315.25;5074574;28;20204;-77
2023/06/09 08:01:47;;;;;;;4.05;3.67;;;;;;;22.52;63.14;64331.44;5071328;28;20213;-78
2023/06/09 08:04:15;;;;;;;4.53;3.85;;;;;;;22.33;59.67;64314.19;5069856;28;20232;-76
2023/06/09 08:06:42;;;;;;;5.40;4.05;;;;;;;22.32;59.88;64312.63;5068239;28;20212;-77
2023/06/09 08:09:09;;;;;;;7.85;4.25;;;;;;;22.48;60.36;64326.75;5074795;28;20196;-75
2023/06/09 08:11:36;;;;;;;4.88;4.05;;;;;;;22.60;60.75;64339.84;5073156;28;20540;-77
2023/06/09 08:14:05;;;;;;;6.68;3.83;;;;;;;22.45;57.86;64326.72;5072688;28;20535;-77
2023/06/09 08:16:34;;;;;;;4.57;4.18;;;;;;;22.60;57.05;64341.91;5071370;28;20213;-76
2023/06/09 08:19:01;;;;;;;7.20;4.00;;;;;;;22.81;58.17;64361.28;5070998;28;20200;-75
2023/06/09 08:21:27;;;;;;;8.05;4.47;;;;;;;22.84;58.41;64367.53;5071546;28;20244;-76
2023/06/09 08:23:55;;;;;;;6.90;4.30;;;;;;;22.84;57.16;64364.41;5069900;28;20235;-76
2023/06/09 08:26:21;;;;;;;4.75;4.28;;;;;;;23.09;59.74;64390.03;5077234;28;20213;-76
2023/06/09 08:28:49;;;;;;;5.20;3.97;;;;;;;23.20;60.12;64407.25;5071446;28;20201;-77
2023/06/09 08:31:16;;;;;;;5.00;4.38;;;;;;;23.49;59.46;64429.28;5063134;28;20205;-77
2023/06/09 08:33:44;;;;;;;9.30;4.57;;;;;;;23.58;56.88;64441.84;5064566;28;20249;-76
2023/06/09 08:36:12;;;;;;;5.60;4.50;;;;;;;23.80;56.17;64466.94;5072908;28;20211;-75
2023/06/09 08:38:38;;;;;;;4.30;3.90;;;;;;;23.36;56.75;64421.44;5071598;28;20191;-75
2023/06/09 08:41:08;;;;;;;5.07;4.57;;;;;;;23.32;58.91;64414.09;5072124;28;20188;-76
2023/06/09 08:43:35;;;;;;;4.72;4.32;;;;;;;23.61;59.81;64444.44;5068957;28;20283;-77
2023/06/09 08:46:05;;;;;;;4.00;3.70;;;;;;;23.69;57.07;64452.81;5067076;28;20199;-75
2023/06/09 08:48:32;;;;;;;3.58;3.38;;;;;;;23.72;56.15;64461.69;5064346;28;20227;-76
2023/06/09 08:51:01;;;;;;;4.55;4.15;;;;;;;23.67;54.58;64451.25;5067022;28;20197;-77
2023/06/09 08:53:30;;;;;;;5.55;3.92;;;;;;;23.76;55.25;64462.75;5066915;28;20193;-75
2023/06/09 08:55:59;;;;;;;5.90;4.13;;;;;;;23.91;57.48;64478.97;5063006;28;20204;-77
2023/06/09 08:58:27;;;;;;;4.35;4.05;;;;;;;24.04;53.55;64486.84;5059707;28;20231;-76
2023/06/09 09:00:54;;;;;;;5.45;4.15;;;;;;;24.04;53.98;64486.84;5071969;28;20235;-77
2023/06/09 09:03:22;;;;;;;4.63;4.00;;;;;;;24.08;52.90;64496.25;5072241;28;20277;-77
2023/06/09 09:05:49;;;;;;;4.70;4.22;;;;;;;24.02;57.02;64485.28;5076116;28;20287;-76
2023/06/09 09:08:20;;;;;;;4.63;3.92;;;;;;;24.23;55.41;64508.84;5074887;28;20282;-77
2023/06/09 09:10:47;;;;;;;9.25;4.93;;;;;;;24.28;52.64;64516.69;5072684;28;20215;-76
2023/06/09 09:13:15;;;;;;;4.13;3.72;;;;;;;24.23;53.57;64511.94;5072629;28;20263;-75
2023/06/09 09:15:48;;;;;;;6.25;4.28;;;;;;;24.01;52.08;64483.72;5074140;28;20242;-75
2023/06/09 09:18:16;;;;;;;4.30;4.00;;;;;;;23.92;53.06;64476.88;5080662;28;20247;-76
2023/06/09 09:20:43;;;;;;;6.38;4.20;;;;;;;24.00;53.61;64485.78;5076271;28;20239;-75
2023/06/09 09:23:10;;;;;;;9.68;4.25;;;;;;;24.07;52.67;64492.09;5071725;28;20215;-76
2023/06/09 09:25:39;;;;;;;7.32;4.05;;;;;;;24.34;54.12;64517.75;5078824;28;20642;-76
2023/06/09 09:28:08;;;;;;;8.10;4.43;;;;;;;24.51;54.76;64538.13;5077830;28;20215;-76
2023/06/09 09:30:45;;;;;;;5.40;4.32;;;;;;;24.63;52.36;64553.31;5079089;28;20514;-75
2023/06/09 09:33:14;;;;;;;4.32;4.00;;;;;;;24.71;52.43;64559.63;5075217;28;20228;-74
2023/06/09 09:35:44;;;;;;;7.72;3.83;;;;;;;24.62;51.81;64547.59;5075774;28;20226;-76
2023/06/09 09:38:17;;;;;;;6.72;4.13;;;;;;;24.63;50.35;64553.31;5071161;28;20297;-76
2023/06/09 09:40:47;;;;;;;4.13;3.70;;;;;;;24.41;49.41;64530.28;5071749;28;20193;-75
2023/06/09 09:43:15;;;;;;;4.22;3.88;;;;;;;24.57;48.91;64544.44;5073615;28;20459;-74
2023/06/09 09:45:45;;;;;;;4.30;3.30;;;;;;;24.55;47.79;64548.06;5070482;28;20270;-75
2023/06/09 09:48:13;;;;;;;4.45;4.13;;;;;;;24.62;47.20;64552.81;5077504;28;20239;-75
2023/06/09 09:50:42;;;;;;;5.30;3.80;;;;;;;24.71;47.57;64559.13;5073363;28;20197;-76
2023/06/09 09:53:10;;;;;;;10.50;4.93;;;;;;;24.91;48.33;64580.06;5075626;28;20222;-75
2023/06/09 09:55:39;;;;;;;5.88;4.05;;;;;;;24.91;49.06;64580.59;5071616;28;20238;-75
2023/06/09 09:58:09;;;;;;;7.97;4.03;;;;;;;24.94;49.93;64586.31;5069709;28;20220;-76
2023/06/09 10:00:39;;;;;;;4.55;4.07;;;;;;;24.63;49.73;64545.50;5077576;28;20198;-75
2023/06/09 10:03:08;;;;;;;4.47;4.18;;;;;;;24.65;50.43;64553.34;5078120;28;20247;-76
2023/06/09 10:05:39;;;;;;;7.43;4.47;;;;;;;24.78;50.45;64566.44;5074863;28;20548;-75
2023/06/09 10:08:08;;;;;;;4.72;4.00;;;;;;;24.84;48.68;64572.72;5077801;28;20216;-77
2023/06/09 10:10:35;;;;;;;5.70;4.75;;;;;;;25.06;47.97;64596.28;5071320;28;20197;-75
2023/06/09 10:13:03;;;;;;;4.97;4.47;;;;;;;25.09;48.90;64599.44;5075985;28;20278;-77
2023/06/09 10:15:32;;;;;;;4.47;4.10;;;;;;;25.31;46.96;64621.97;5070728;28;20224;-75
2023/06/09 10:18:00;;;;;;;5.43;3.55;;;;;;;25.36;47.18;64624.06;5072587;28;20532;-74
2023/06/09 10:20:28;;;;;;;4.50;4.10;;;;;;;25.31;45.28;64624.56;5070912;28;20196;-75
2023/06/09 10:22:56;;;;;;;5.47;3.47;;;;;;;25.44;46.25;64632.97;5072720;28;20465;-75
2023/06/09 10:25:26;;;;;;;5.43;3.67;;;;;;;25.77;49.59;64669.66;5072277;28;20232;-76
2023/06/09 10:27:53;;;;;;;4.00;3.70;;;;;;;26.03;47.32;64702.66;5074514;28;20225;-76
2023/06/09 10:30:21;;;;;;;4.15;3.78;;;;;;;25.97;46.18;64688.00;5072970;28;20208;-75
2023/06/09 10:32:55;;;;;;;4.97;4.00;;;;;;;25.96;47.14;64692.16;5076366;28;20227;-75
2023/06/09 10:35:27;;;;;;;3.72;3.53;;;;;;;25.97;46.05;64690.63;5070533;28;20200;-75
2023/06/09 10:37:56;;;;;;;3.97;3.63;;;;;;;25.75;47.69;64670.69;5073741;28;20230;-75
2023/06/09 10:40:31;;;;;;;4.45;3.65;;;;;;;25.69;46.05;64661.28;5070605;28;20196;-76
2023/06/09 10:43:29;;;;;;;3.97;3.67;;;;;;;25.79;45.55;64677.50;5076128;28;20224;-75
2023/06/09 10:45:58;;;;;;;3.72;3.53;;;;;;;25.99;46.49;64701.06;5045274;28;20302;-75
2023/06/09 10:48:48;;;;;;;5.72;4.25;;;;;;;26.15;42.77;64706.88;5075721;28;20255;-76
2023/06/09 10:51:43;;;;;;;4.80;4.00;;;;;;;26.30;42.97;64722.09;5072552;28;20200;-75
2023/06/09 10:54:25;;;;;;;5.38;3.58;;;;;;;25.85;42.89;64678.56;5074700;28;20201;-75
2023/06/09 10:57:00;;;;;;;3.95;3.67;;;;;;;25.75;41.96;64672.75;5073846;28;20230;-78
2023/06/09 10:59:54;;;;;;;4.35;3.55;;;;;;;25.78;41.61;64670.69;5073991;28;20390;-75
2023/06/09 11:02:21;;;;;;;4.13;3.83;;;;;;;26.17;42.02;64714.75;5074699;28;20254;-76
2023/06/09 11:04:52;;;;;;;5.63;4.10;;;;;;;26.44;44.60;64739.91;5073819;28;20226;-76
2023/06/09 11:07:20;;;;;;;3.85;3.50;;;;;;;26.66;40.53;64768.19;5077184;28;20217;-75
2023/06/09 11:10:37;;;;;;;3.97;3.67;;;;;;;26.67;41.22;64758.28;5075761;28;20246;-76
2023/06/09 11:13:41;;;;;;;4.63;4.20;;;;;;;26.95;40.59;64792.88;5073628;28;20407;-76
2023/06/09 11:16:09;;;;;;;4.60;4.28;;;;;;;26.80;41.51;64777.66;5070794;28;20201;-76
2023/06/09 11:18:38;;;;;;;4.25;3.95;;;;;;;26.86;40.08;64786.06;5075554;28;20210;-75
2023/06/09 11:21:25;;;;;;;6.07;4.65;;;;;;;26.93;40.18;64791.31;5073069;28;20264;-75
2023/06/09 11:24:10;;;;;;;5.00;4.15;;;;;;;26.94;40.40;64791.81;5071948;28;20204;-76
2023/06/09 11:26:37;;;;;;;5.10;3.38;;;;;;;26.61;39.69;64759.81;5071075;28;20274;-75
2023/06/09 11:29:21;;;;;;;6.50;3.72;;;;;;;26.56;39.31;64749.34;5074594;28;20493;-75
2023/06/09 11:31:49;;;;;;;3.80;3.60;;;;;;;26.76;39.43;64776.09;5077800;28;20261;-74
2023/06/09 11:34:55;;;;;;;5.90;3.47;;;;;;;27.15;40.68;64817.00;5073656;28;20200;-76
2023/06/09 11:37:26;;;;;;;4.40;4.20;;;;;;;26.93;40.23;64790.78;5073164;28;20251;-74